sensor_id;sensor_type;location;lat;lon;timestamp;pressure;altitude;pressure_sealevel;temperature;humidity
12203;BME280;6164;42.178;24.622;2023-10-09T00:01:05;99909.25;;;20.94;59.13
12203;BME280;6164;42.178;24.622;2023-10-09T00:03:38;99913.53;;;20.83;59.32
12203;BME280;6164;42.178;24.622;2023-10-09T00:06:05;99907.41;;;20.76;59.79
12203;BME280;6164;42.178;24.622;2023-10-09T00:08:35;99908.91;;;20.54;60.00
12203;BME280;6164;42.178;24.622;2023-10-09T00:11:04;99912.75;;;20.47;60.86
12203;BME280;6164;42.178;24.622;2023-10-09T00:13:43;99901.25;;;20.40;61.54
12203;BME280;6164;42.178;24.622;2023-10-09T00:16:16;99911.19;;;20.39;61.79
12203;BME280;6164;42.178;24.622;2023-10-09T00:18:47;99907.53;;;20.34;62.09
12203;BME280;6164;42.178;24.622;2023-10-09T00:21:14;99917.50;;;20.27;62.58
12203;BME280;6164;42.178;24.622;2023-10-09T00:23:41;99910.75;;;20.24;63.13
12203;BME280;6164;42.178;24.622;2023-10-09T00:26:07;99907.91;;;20.19;63.26
12203;BME280;6164;42.178;24.622;2023-10-09T00:28:38;99910.84;;;20.11;63.40
12203;BME280;6164;42.178;24.622;2023-10-09T00:31:09;99909.19;;;20.10;63.53
12203;BME280;6164;42.178;24.622;2023-10-09T00:33:40;99915.00;;;20.07;64.40
12203;BME280;6164;42.178;24.622;2023-10-09T00:36:06;99904.28;;;20.07;64.07
12203;BME280;6164;42.178;24.622;2023-10-09T00:38:35;99912.09;;;20.09;64.23
12203;BME280;6164;42.178;24.622;2023-10-09T00:41:04;99916.06;;;20.06;64.32
12203;BME280;6164;42.178;24.622;2023-10-09T00:43:36;99922.66;;;20.04;64.34
12203;BME280;6164;42.178;24.622;2023-10-09T00:46:04;99918.34;;;20.03;63.59
12203;BME280;6164;42.178;24.622;2023-10-09T00:48:35;99928.25;;;20.02;62.93
12203;BME280;6164;42.178;24.622;2023-10-09T00:51:05;99937.91;;;20.03;62.44
12203;BME280;6164;42.178;24.622;2023-10-09T00:53:42;99937.72;;;20.05;62.01
12203;BME280;6164;42.178;24.622;2023-10-09T00:56:09;99949.63;;;20.09;61.05
12203;BME280;6164;42.178;24.622;2023-10-09T00:58:44;99944.41;;;20.14;60.60
12203;BME280;6164;42.178;24.622;2023-10-09T01:01:12;99932.50;;;20.10;60.61
12203;BME280;6164;42.178;24.622;2023-10-09T01:03:42;99933.16;;;20.05;60.89
12203;BME280;6164;42.178;24.622;2023-10-09T01:06:10;99927.84;;;19.99;61.23
12203;BME280;6164;42.178;24.622;2023-10-09T01:08:49;99938.41;;;19.94;61.84
12203;BME280;6164;42.178;24.622;2023-10-09T01:11:33;99933.00;;;19.76;63.12
12203;BME280;6164;42.178;24.622;2023-10-09T01:14:12;99942.66;;;19.58;64.27
12203;BME280;6164;42.178;24.622;2023-10-09T01:16:39;99943.75;;;19.44;65.13
12203;BME280;6164;42.178;24.622;2023-10-09T01:19:08;99946.88;;;19.41;65.79
12203;BME280;6164;42.178;24.622;2023-10-09T01:21:45;99950.22;;;19.37;65.04
12203;BME280;6164;42.178;24.622;2023-10-09T01:24:13;99949.63;;;19.28;66.10
12203;BME280;6164;42.178;24.622;2023-10-09T01:26:42;99957.88;;;19.27;66.60
12203;BME280;6164;42.178;24.622;2023-10-09T01:29:11;99957.84;;;19.33;67.13
12203;BME280;6164;42.178;24.622;2023-10-09T01:31:42;99964.19;;;19.39;67.59
12203;BME280;6164;42.178;24.622;2023-10-09T01:34:16;99966.88;;;19.39;68.91
12203;BME280;6164;42.178;24.622;2023-10-09T01:36:43;99964.56;;;19.42;70.65
12203;BME280;6164;42.178;24.622;2023-10-09T01:39:15;99964.16;;;19.45;71.89
12203;BME280;6164;42.178;24.622;2023-10-09T01:41:49;99970.72;;;19.49;72.52
12203;BME280;6164;42.178;24.622;2023-10-09T01:44:22;99981.44;;;19.49;73.39
12203;BME280;6164;42.178;24.622;2023-10-09T01:46:50;99985.59;;;19.45;74.31
12203;BME280;6164;42.178;24.622;2023-10-09T01:49:20;99986.00;;;19.42;74.91
12203;BME280;6164;42.178;24.622;2023-10-09T01:51:54;99990.59;;;19.35;75.82
12203;BME280;6164;42.178;24.622;2023-10-09T01:54:25;99993.09;;;19.30;76.92
12203;BME280;6164;42.178;24.622;2023-10-09T01:57:02;99997.44;;;19.18;78.06
12203;BME280;6164;42.178;24.622;2023-10-09T01:59:31;99998.53;;;19.11;79.66
12203;BME280;6164;42.178;24.622;2023-10-09T02:01:57;100000.84;;;18.94;80.74
12203;BME280;6164;42.178;24.622;2023-10-09T02:04:27;99997.84;;;18.78;82.46
12203;BME280;6164;42.178;24.622;2023-10-09T02:06:54;100004.03;;;18.65;84.15
12203;BME280;6164;42.178;24.622;2023-10-09T02:09:21;100009.00;;;18.49;86.35
12203;BME280;6164;42.178;24.622;2023-10-09T02:11:56;100016.44;;;18.40;88.67
12203;BME280;6164;42.178;24.622;2023-10-09T02:14:22;100025.88;;;18.29;89.73
12203;BME280;6164;42.178;24.622;2023-10-09T02:16:49;100034.53;;;18.25;89.16
12203;BME280;6164;42.178;24.622;2023-10-09T02:19:29;100032.03;;;18.10;89.18
12203;BME280;6164;42.178;24.622;2023-10-09T02:21:58;100046.84;;;18.00;91.16
12203;BME280;6164;42.178;24.622;2023-10-09T02:24:26;100050.31;;;17.81;93.94
12203;BME280;6164;42.178;24.622;2023-10-09T02:27:09;100050.06;;;17.56;96.32
12203;BME280;6164;42.178;24.622;2023-10-09T02:29:45;100052.25;;;17.40;98.28
12203;BME280;6164;42.178;24.622;2023-10-09T02:32:12;100062.50;;;17.30;99.98
12203;BME280;6164;42.178;24.622;2023-10-09T02:34:50;100077.44;;;17.18;100.00
12203;BME280;6164;42.178;24.622;2023-10-09T02:37:19;100081.91;;;17.10;100.00
12203;BME280;6164;42.178;24.622;2023-10-09T02:39:48;100090.91;;;17.03;100.00
12203;BME280;6164;42.178;24.622;2023-10-09T02:42:18;100098.31;;;17.07;100.00
12203;BME280;6164;42.178;24.622;2023-10-09T02:44:53;100122.34;;;17.14;100.00
12203;BME280;6164;42.178;24.622;2023-10-09T02:47:20;100138.72;;;17.04;99.01
12203;BME280;6164;42.178;24.622;2023-10-09T02:49:50;100136.28;;;17.09;91.72
12203;BME280;6164;42.178;24.622;2023-10-09T02:52:16;100139.34;;;17.06;89.82
12203;BME280;6164;42.178;24.622;2023-10-09T02:54:49;100152.66;;;17.00;90.53
12203;BME280;6164;42.178;24.622;2023-10-09T02:57:26;100163.09;;;16.95;90.79
12203;BME280;6164;42.178;24.622;2023-10-09T03:00:01;100165.72;;;16.88;89.96
12203;BME280;6164;42.178;24.622;2023-10-09T03:02:29;100167.94;;;16.85;88.84
12203;BME280;6164;42.178;24.622;2023-10-09T03:04:57;100174.28;;;16.84;85.71
12203;BME280;6164;42.178;24.622;2023-10-09T03:07:24;100179.16;;;16.80;84.19
12203;BME280;6164;42.178;24.622;2023-10-09T03:09:51;100183.94;;;16.85;83.58
12203;BME280;6164;42.178;24.622;2023-10-09T03:12:17;100178.38;;;16.80;83.30
12203;BME280;6164;42.178;24.622;2023-10-09T03:14:45;100186.16;;;16.81;82.35
12203;BME280;6164;42.178;24.622;2023-10-09T03:17:12;100200.09;;;16.77;80.47
12203;BME280;6164;42.178;24.622;2023-10-09T03:19:38;100200.25;;;16.75;80.28
12203;BME280;6164;42.178;24.622;2023-10-09T03:22:05;100205.72;;;16.67;78.26
12203;BME280;6164;42.178;24.622;2023-10-09T03:24:35;100209.16;;;16.61;77.40
12203;BME280;6164;42.178;24.622;2023-10-09T03:27:02;100204.19;;;16.52;77.84
12203;BME280;6164;42.178;24.622;2023-10-09T03:29:28;100210.09;;;16.47;77.32
12203;BME280;6164;42.178;24.622;2023-10-09T03:31:56;100216.13;;;16.41;77.58
12203;BME280;6164;42.178;24.622;2023-10-09T03:34:22;100207.44;;;16.33;77.98
12203;BME280;6164;42.178;24.622;2023-10-09T03:36:49;100217.03;;;16.27;78.70
12203;BME280;6164;42.178;24.622;2023-10-09T03:39:24;100211.44;;;16.22;79.35
12203;BME280;6164;42.178;24.622;2023-10-09T03:41:59;100219.25;;;16.24;79.25
12203;BME280;6164;42.178;24.622;2023-10-09T03:44:30;100224.31;;;16.19;79.25
12203;BME280;6164;42.178;24.622;2023-10-09T03:47:00;100226.13;;;16.18;78.98
12203;BME280;6164;42.178;24.622;2023-10-09T03:49:27;100239.66;;;16.17;78.74
12203;BME280;6164;42.178;24.622;2023-10-09T03:51:54;100242.69;;;16.14;78.42
12203;BME280;6164;42.178;24.622;2023-10-09T03:54:21;100251.34;;;16.16;79.02
12203;BME280;6164;42.178;24.622;2023-10-09T03:56:49;100254.44;;;16.19;78.85
12203;BME280;6164;42.178;24.622;2023-10-09T03:59:16;100251.59;;;16.21;78.76
12203;BME280;6164;42.178;24.622;2023-10-09T04:01:42;100244.84;;;16.25;77.52
12203;BME280;6164;42.178;24.622;2023-10-09T04:04:12;100238.28;;;16.21;76.93
12203;BME280;6164;42.178;24.622;2023-10-09T04:06:39;100239.00;;;16.15;76.49
12203;BME280;6164;42.178;24.622;2023-10-09T04:09:06;100260.78;;;16.18;75.88
12203;BME280;6164;42.178;24.622;2023-10-09T04:11:53;100251.34;;;16.16;75.24
12203;BME280;6164;42.178;24.622;2023-10-09T04:14:38;100257.19;;;16.11;75.27
12203;BME280;6164;42.178;24.622;2023-10-09T04:17:19;100266.84;;;16.12;75.89
12203;BME280;6164;42.178;24.622;2023-10-09T04:20:00;100262.53;;;16.11;76.02
12203;BME280;6164;42.178;24.622;2023-10-09T04:22:43;100273.75;;;16.07;76.33
12203;BME280;6164;42.178;24.622;2023-10-09T04:25:16;100291.22;;;16.09;74.83
12203;BME280;6164;42.178;24.622;2023-10-09T04:27:50;100297.53;;;16.08;75.51
12203;BME280;6164;42.178;24.622;2023-10-09T04:30:18;100295.97;;;16.14;74.83
12203;BME280;6164;42.178;24.622;2023-10-09T04:32:44;100293.50;;;16.12;74.73
12203;BME280;6164;42.178;24.622;2023-10-09T04:35:13;100304.53;;;16.09;73.30
12203;BME280;6164;42.178;24.622;2023-10-09T04:37:49;100314.72;;;16.06;72.82
12203;BME280;6164;42.178;24.622;2023-10-09T04:40:28;100312.97;;;15.98;71.20
12203;BME280;6164;42.178;24.622;2023-10-09T04:43:13;100319.88;;;15.93;69.75
12203;BME280;6164;42.178;24.622;2023-10-09T04:45:45;100326.69;;;15.80;68.27
12203;BME280;6164;42.178;24.622;2023-10-09T04:48:33;100338.88;;;15.75;68.20
12203;BME280;6164;42.178;24.622;2023-10-09T04:51:00;100326.97;;;15.71;67.52
12203;BME280;6164;42.178;24.622;2023-10-09T04:53:44;100330.00;;;15.68;67.37
12203;BME280;6164;42.178;24.622;2023-10-09T04:56:16;100332.00;;;15.66;66.69
12203;BME280;6164;42.178;24.622;2023-10-09T04:58:41;100335.22;;;15.61;66.44
12203;BME280;6164;42.178;24.622;2023-10-09T05:01:09;100341.81;;;15.51;66.07
12203;BME280;6164;42.178;24.622;2023-10-09T05:03:40;100338.84;;;15.46;65.70
12203;BME280;6164;42.178;24.622;2023-10-09T05:06:12;100347.91;;;15.37;65.35
12203;BME280;6164;42.178;24.622;2023-10-09T05:08:47;100342.13;;;15.33;65.45
12203;BME280;6164;42.178;24.622;2023-10-09T05:11:14;100356.88;;;15.36;65.14
12203;BME280;6164;42.178;24.622;2023-10-09T05:13:41;100365.22;;;15.33;64.38
12203;BME280;6164;42.178;24.622;2023-10-09T05:16:22;100365.97;;;15.27;64.49
12203;BME280;6164;42.178;24.622;2023-10-09T05:18:51;100368.25;;;15.30;64.40
12203;BME280;6164;42.178;24.622;2023-10-09T05:21:23;100381.19;;;15.33;63.47
12203;BME280;6164;42.178;24.622;2023-10-09T05:24:02;100380.72;;;15.29;63.38
12203;BME280;6164;42.178;24.622;2023-10-09T05:26:48;100379.72;;;15.30;63.14
12203;BME280;6164;42.178;24.622;2023-10-09T05:29:17;100391.72;;;15.26;62.31
12203;BME280;6164;42.178;24.622;2023-10-09T05:32:00;100400.53;;;15.27;61.86
12203;BME280;6164;42.178;24.622;2023-10-09T05:34:29;100404.56;;;15.23;61.41
12203;BME280;6164;42.178;24.622;2023-10-09T05:37:00;100407.03;;;15.24;60.58
12203;BME280;6164;42.178;24.622;2023-10-09T05:39:42;100403.59;;;15.16;60.00
12203;BME280;6164;42.178;24.622;2023-10-09T05:42:08;100419.56;;;15.16;59.44
12203;BME280;6164;42.178;24.622;2023-10-09T05:44:43;100423.72;;;15.18;58.53
12203;BME280;6164;42.178;24.622;2023-10-09T05:47:27;100424.25;;;15.14;58.40
12203;BME280;6164;42.178;24.622;2023-10-09T05:49:57;100439.72;;;15.10;57.57
12203;BME280;6164;42.178;24.622;2023-10-09T05:52:49;100444.03;;;15.11;57.71
12203;BME280;6164;42.178;24.622;2023-10-09T05:55:42;100452.84;;;15.12;57.67
12203;BME280;6164;42.178;24.622;2023-10-09T05:58:26;100455.50;;;15.12;58.03
12203;BME280;6164;42.178;24.622;2023-10-09T06:01:10;100457.56;;;15.24;57.84
12203;BME280;6164;42.178;24.622;2023-10-09T06:03:54;100459.06;;;15.27;57.73
12203;BME280;6164;42.178;24.622;2023-10-09T06:06:20;100470.00;;;15.32;58.28
12203;BME280;6164;42.178;24.622;2023-10-09T06:09:03;100468.44;;;15.37;58.19
12203;BME280;6164;42.178;24.622;2023-10-09T06:11:53;100500.03;;;15.48;56.94
12203;BME280;6164;42.178;24.622;2023-10-09T06:14:40;100513.44;;;15.55;56.61
12203;BME280;6164;42.178;24.622;2023-10-09T06:17:23;100519.97;;;15.67;56.97
12203;BME280;6164;42.178;24.622;2023-10-09T06:19:48;100533.22;;;15.75;55.98
12203;BME280;6164;42.178;24.622;2023-10-09T06:22:23;100552.69;;;15.75;55.21
12203;BME280;6164;42.178;24.622;2023-10-09T06:25:05;100557.31;;;15.81;55.43
12203;BME280;6164;42.178;24.622;2023-10-09T06:27:36;100560.56;;;15.92;55.64
12203;BME280;6164;42.178;24.622;2023-10-09T06:30:20;100591.09;;;16.04;53.90
12203;BME280;6164;42.178;24.622;2023-10-09T06:32:51;100611.38;;;16.05;53.83
12203;BME280;6164;42.178;24.622;2023-10-09T06:35:23;100619.22;;;16.06;53.34
12203;BME280;6164;42.178;24.622;2023-10-09T06:37:56;100626.47;;;16.12;52.78
12203;BME280;6164;42.178;24.622;2023-10-09T06:40:47;100629.63;;;16.16;52.11
12203;BME280;6164;42.178;24.622;2023-10-09T06:43:42;100627.44;;;16.19;51.85
12203;BME280;6164;42.178;24.622;2023-10-09T06:46:18;100633.38;;;16.21;52.45
12203;BME280;6164;42.178;24.622;2023-10-09T06:49:02;100638.53;;;16.23;52.34
12203;BME280;6164;42.178;24.622;2023-10-09T06:51:54;100635.28;;;16.35;52.09
12203;BME280;6164;42.178;24.622;2023-10-09T06:54:34;100648.00;;;16.48;51.60
12203;BME280;6164;42.178;24.622;2023-10-09T06:57:04;100652.78;;;16.52;51.67
12203;BME280;6164;42.178;24.622;2023-10-09T06:59:38;100661.25;;;16.56;51.27
12203;BME280;6164;42.178;24.622;2023-10-09T07:02:24;100666.88;;;16.61;51.58
12203;BME280;6164;42.178;24.622;2023-10-09T07:04:56;100675.72;;;16.61;51.38
12203;BME280;6164;42.178;24.622;2023-10-09T07:07:22;100667.81;;;16.68;51.08
12203;BME280;6164;42.178;24.622;2023-10-09T07:09:50;100677.66;;;16.67;50.56
12203;BME280;6164;42.178;24.622;2023-10-09T07:12:33;100667.28;;;16.72;51.43
12203;BME280;6164;42.178;24.622;2023-10-09T07:15:07;100674.75;;;16.77;51.27
12203;BME280;6164;42.178;24.622;2023-10-09T07:17:52;100678.41;;;16.76;51.07
12203;BME280;6164;42.178;24.622;2023-10-09T07:20:20;100675.84;;;16.82;51.29
12203;BME280;6164;42.178;24.622;2023-10-09T07:23:10;100678.69;;;16.81;50.93
12203;BME280;6164;42.178;24.622;2023-10-09T07:25:43;100678.31;;;16.84;50.38
12203;BME280;6164;42.178;24.622;2023-10-09T07:28:21;100678.22;;;16.92;50.44
12203;BME280;6164;42.178;24.622;2023-10-09T07:31:08;100686.63;;;17.03;49.95
12203;BME280;6164;42.178;24.622;2023-10-09T07:33:49;100671.81;;;17.16;50.79
12203;BME280;6164;42.178;24.622;2023-10-09T07:36:23;100702.66;;;17.18;49.51
12203;BME280;6164;42.178;24.622;2023-10-09T07:38:59;100699.44;;;17.23;49.62
12203;BME280;6164;42.178;24.622;2023-10-09T07:41:30;100694.47;;;17.20;49.36
12203;BME280;6164;42.178;24.622;2023-10-09T07:44:04;100687.00;;;17.30;50.34
12203;BME280;6164;42.178;24.622;2023-10-09T07:46:45;100684.97;;;17.46;50.20
12203;BME280;6164;42.178;24.622;2023-10-09T07:49:17;100686.53;;;17.55;50.24
12203;BME280;6164;42.178;24.622;2023-10-09T07:51:50;100690.41;;;17.67;50.02
12203;BME280;6164;42.178;24.622;2023-10-09T07:54:17;100697.25;;;17.76;49.71
12203;BME280;6164;42.178;24.622;2023-10-09T07:56:57;100673.31;;;17.83;49.87
12203;BME280;6164;42.178;24.622;2023-10-09T07:59:35;100687.38;;;17.91;49.91
12203;BME280;6164;42.178;24.622;2023-10-09T08:02:06;100672.81;;;17.94;50.60
12203;BME280;6164;42.178;24.622;2023-10-09T08:04:38;100681.34;;;18.04;50.44
12203;BME280;6164;42.178;24.622;2023-10-09T08:07:13;100684.72;;;18.12;49.10
12203;BME280;6164;42.178;24.622;2023-10-09T08:09:44;100700.09;;;18.10;48.87
12203;BME280;6164;42.178;24.622;2023-10-09T08:12:13;100700.00;;;18.18;49.17
12203;BME280;6164;42.178;24.622;2023-10-09T08:14:41;100699.69;;;18.28;48.99
12203;BME280;6164;42.178;24.622;2023-10-09T08:17:08;100704.44;;;18.32;48.43
12203;BME280;6164;42.178;24.622;2023-10-09T08:19:39;100676.13;;;18.38;49.41
12203;BME280;6164;42.178;24.622;2023-10-09T08:22:20;100695.94;;;18.44;48.93
12203;BME280;6164;42.178;24.622;2023-10-09T08:25:00;100684.28;;;18.51;48.83
12203;BME280;6164;42.178;24.622;2023-10-09T08:27:28;100685.53;;;18.55;48.90
12203;BME280;6164;42.178;24.622;2023-10-09T08:30:20;100681.91;;;18.63;48.87
12203;BME280;6164;42.178;24.622;2023-10-09T08:33:06;100679.25;;;18.63;49.31
12203;BME280;6164;42.178;24.622;2023-10-09T08:35:46;100678.72;;;18.74;49.16
12203;BME280;6164;42.178;24.622;2023-10-09T08:38:14;100672.41;;;18.81;48.62
12203;BME280;6164;42.178;24.622;2023-10-09T08:40:42;100684.34;;;18.85;47.79
12203;BME280;6164;42.178;24.622;2023-10-09T08:43:13;100696.34;;;18.68;47.53
12203;BME280;6164;42.178;24.622;2023-10-09T08:45:44;100667.56;;;18.70;48.91
12203;BME280;6164;42.178;24.622;2023-10-09T08:48:11;100630.56;;;18.74;50.90
12203;BME280;6164;42.178;24.622;2023-10-09T08:50:40;100639.25;;;18.82;49.31
12203;BME280;6164;42.178;24.622;2023-10-09T08:53:07;100638.88;;;18.85;49.66
12203;BME280;6164;42.178;24.622;2023-10-09T08:55:34;100620.72;;;18.81;50.51
12203;BME280;6164;42.178;24.622;2023-10-09T08:58:02;100627.69;;;18.75;49.58
12203;BME280;6164;42.178;24.622;2023-10-09T09:00:31;100614.34;;;18.82;50.37
12203;BME280;6164;42.178;24.622;2023-10-09T09:02:59;100626.31;;;18.86;49.14
12203;BME280;6164;42.178;24.622;2023-10-09T09:05:26;100614.97;;;18.84;49.63
12203;BME280;6164;42.178;24.622;2023-10-09T09:07:53;100610.13;;;19.00;49.56
12203;BME280;6164;42.178;24.622;2023-10-09T09:10:27;100630.72;;;19.00;48.90
12203;BME280;6164;42.178;24.622;2023-10-09T09:13:00;100614.53;;;19.14;49.83
12203;BME280;6164;42.178;24.622;2023-10-09T09:15:28;100629.81;;;19.20;48.29
12203;BME280;6164;42.178;24.622;2023-10-09T09:18:04;100622.44;;;18.95;49.02
12203;BME280;6164;42.178;24.622;2023-10-09T09:20:36;100611.59;;;19.09;49.06
12203;BME280;6164;42.178;24.622;2023-10-09T09:23:05;100605.91;;;19.19;49.56
12203;BME280;6164;42.178;24.622;2023-10-09T09:25:42;100617.44;;;19.19;48.99
12203;BME280;6164;42.178;24.622;2023-10-09T09:28:11;100610.19;;;19.13;48.89
12203;BME280;6164;42.178;24.622;2023-10-09T09:30:45;100610.03;;;19.21;48.90
12203;BME280;6164;42.178;24.622;2023-10-09T09:33:20;100602.91;;;19.35;48.93
12203;BME280;6164;42.178;24.622;2023-10-09T09:35:58;100596.94;;;19.39;48.15
12203;BME280;6164;42.178;24.622;2023-10-09T09:38:25;100586.25;;;19.46;48.50
12203;BME280;6164;42.178;24.622;2023-10-09T09:40:53;100590.00;;;19.51;48.75
12203;BME280;6164;42.178;24.622;2023-10-09T09:43:20;100591.44;;;19.54;48.50
12203;BME280;6164;42.178;24.622;2023-10-09T09:45:48;100599.25;;;19.55;48.50
12203;BME280;6164;42.178;24.622;2023-10-09T09:48:20;100589.41;;;19.62;48.65
12203;BME280;6164;42.178;24.622;2023-10-09T09:50:49;100593.13;;;19.68;48.54
12203;BME280;6164;42.178;24.622;2023-10-09T09:53:19;100592.09;;;19.69;47.99
12203;BME280;6164;42.178;24.622;2023-10-09T09:55:49;100585.72;;;19.77;47.99
12203;BME280;6164;42.178;24.622;2023-10-09T09:58:24;100582.88;;;19.91;47.73
12203;BME280;6164;42.178;24.622;2023-10-09T10:01:00;100604.09;;;19.93;46.80
12203;BME280;6164;42.178;24.622;2023-10-09T10:03:36;100587.19;;;19.92;47.04
12203;BME280;6164;42.178;24.622;2023-10-09T10:06:04;100581.63;;;19.94;47.17
12203;BME280;6164;42.178;24.622;2023-10-09T10:08:41;100575.44;;;19.93;46.96
12203;BME280;6164;42.178;24.622;2023-10-09T10:11:07;100564.72;;;20.00;47.19
12203;BME280;6164;42.178;24.622;2023-10-09T10:13:54;100553.81;;;19.95;47.54
12203;BME280;6164;42.178;24.622;2023-10-09T10:16:25;100535.84;;;20.08;47.99
12203;BME280;6164;42.178;24.622;2023-10-09T10:19:01;100529.88;;;20.06;47.57
12203;BME280;6164;42.178;24.622;2023-10-09T10:21:46;100529.88;;;20.13;46.98
12203;BME280;6164;42.178;24.622;2023-10-09T10:27:16;100536.03;;;20.07;46.95
12203;BME280;6164;42.178;24.622;2023-10-09T10:32:41;100540.22;;;20.16;45.72
12203;BME280;6164;42.178;24.622;2023-10-09T10:35:20;100529.69;;;20.21;46.48
12203;BME280;6164;42.178;24.622;2023-10-09T10:37:57;100527.22;;;20.26;46.47
12203;BME280;6164;42.178;24.622;2023-10-09T10:40:36;100521.63;;;20.27;47.24
12203;BME280;6164;42.178;24.622;2023-10-09T10:43:06;100530.31;;;20.36;45.67
12203;BME280;6164;42.178;24.622;2023-10-09T10:45:38;100539.13;;;20.43;45.42
12203;BME280;6164;42.178;24.622;2023-10-09T10:48:09;100544.31;;;20.38;45.19
12203;BME280;6164;42.178;24.622;2023-10-09T10:50:49;100546.38;;;20.36;44.87
12203;BME280;6164;42.178;24.622;2023-10-09T10:53:22;100541.81;;;20.43;45.28
12203;BME280;6164;42.178;24.622;2023-10-09T10:55:55;100536.06;;;20.52;44.85
12203;BME280;6164;42.178;24.622;2023-10-09T10:58:51;100525.50;;;20.64;45.89
12203;BME280;6164;42.178;24.622;2023-10-09T11:01:36;100516.22;;;20.53;45.09
12203;BME280;6164;42.178;24.622;2023-10-09T11:04:18;100505.84;;;20.70;44.68
12203;BME280;6164;42.178;24.622;2023-10-09T11:06:51;100508.09;;;20.79;45.39
12203;BME280;6164;42.178;24.622;2023-10-09T11:09:18;100517.16;;;20.85;44.40
12203;BME280;6164;42.178;24.622;2023-10-09T11:11:47;100523.66;;;20.51;44.43
12203;BME280;6164;42.178;24.622;2023-10-09T11:14:15;100514.78;;;20.57;44.73
12203;BME280;6164;42.178;24.622;2023-10-09T11:16:42;100500.47;;;20.76;44.56
12203;BME280;6164;42.178;24.622;2023-10-09T11:19:13;100519.91;;;20.72;43.45
12203;BME280;6164;42.178;24.622;2023-10-09T11:21:47;100529.19;;;20.63;43.51
12203;BME280;6164;42.178;24.622;2023-10-09T11:24:20;100509.09;;;20.85;44.48
12203;BME280;6164;42.178;24.622;2023-10-09T11:26:51;100492.13;;;21.04;43.66
12203;BME280;6164;42.178;24.622;2023-10-09T11:29:22;100488.94;;;21.20;44.01
12203;BME280;6164;42.178;24.622;2023-10-09T11:32:17;100486.34;;;21.38;43.86
12203;BME280;6164;42.178;24.622;2023-10-09T11:34:44;100502.34;;;21.27;42.80
12203;BME280;6164;42.178;24.622;2023-10-09T11:37:17;100498.00;;;21.26;43.14
12203;BME280;6164;42.178;24.622;2023-10-09T11:39:58;100478.88;;;21.40;43.93
12203;BME280;6164;42.178;24.622;2023-10-09T11:42:24;100471.81;;;21.46;43.03
12203;BME280;6164;42.178;24.622;2023-10-09T11:45:03;100475.13;;;21.48;42.51
12203;BME280;6164;42.178;24.622;2023-10-09T11:47:44;100473.06;;;21.50;42.94
12203;BME280;6164;42.178;24.622;2023-10-09T11:50:19;100486.81;;;21.60;42.35
12203;BME280;6164;42.178;24.622;2023-10-09T11:52:55;100494.00;;;21.66;42.00
12203;BME280;6164;42.178;24.622;2023-10-09T11:55:41;100469.13;;;21.77;43.23
12203;BME280;6164;42.178;24.622;2023-10-09T11:58:07;100474.63;;;21.88;42.12
12203;BME280;6164;42.178;24.622;2023-10-09T12:00:34;100505.75;;;22.02;41.32
12203;BME280;6164;42.178;24.622;2023-10-09T12:03:10;100519.72;;;21.86;40.85
12203;BME280;6164;42.178;24.622;2023-10-09T12:05:38;100527.19;;;21.84;40.79
12203;BME280;6164;42.178;24.622;2023-10-09T12:08:07;100531.75;;;21.84;40.40
12203;BME280;6164;42.178;24.622;2023-10-09T12:10:34;100515.06;;;22.00;41.51
12203;BME280;6164;42.178;24.622;2023-10-09T12:13:05;100510.84;;;22.10;40.66
12203;BME280;6164;42.178;24.622;2023-10-09T12:15:32;100514.13;;;22.12;40.10
12203;BME280;6164;42.178;24.622;2023-10-09T12:18:04;100516.16;;;22.17;40.78
12203;BME280;6164;42.178;24.622;2023-10-09T12:20:32;100512.13;;;22.26;40.34
12203;BME280;6164;42.178;24.622;2023-10-09T12:22:59;100508.56;;;22.32;40.14
12203;BME280;6164;42.178;24.622;2023-10-09T12:25:26;100503.53;;;22.36;40.47
12203;BME280;6164;42.178;24.622;2023-10-09T12:27:56;100490.84;;;22.43;40.97
12203;BME280;6164;42.178;24.622;2023-10-09T12:30:24;100496.16;;;22.49;40.37
12203;BME280;6164;42.178;24.622;2023-10-09T12:32:53;100490.06;;;22.60;40.97
12203;BME280;6164;42.178;24.622;2023-10-09T12:35:20;100491.19;;;22.71;39.96
12203;BME280;6164;42.178;24.622;2023-10-09T12:37:46;100484.38;;;22.86;40.80
12203;BME280;6164;42.178;24.622;2023-10-09T12:40:15;100498.34;;;22.95;39.72
12203;BME280;6164;42.178;24.622;2023-10-09T12:42:49;100530.44;;;22.96;38.38
12203;BME280;6164;42.178;24.622;2023-10-09T12:45:15;100534.56;;;22.99;38.69
12203;BME280;6164;42.178;24.622;2023-10-09T12:47:45;100519.28;;;23.11;39.02
12203;BME280;6164;42.178;24.622;2023-10-09T12:50:12;100538.66;;;23.19;38.23
12203;BME280;6164;42.178;24.622;2023-10-09T12:52:39;100529.66;;;23.25;38.81
12203;BME280;6164;42.178;24.622;2023-10-09T12:55:06;100565.09;;;23.29;37.57
12203;BME280;6164;42.178;24.622;2023-10-09T12:57:43;100549.28;;;23.32;38.33
12203;BME280;6164;42.178;24.622;2023-10-09T13:00:09;100541.25;;;23.44;38.21
12203;BME280;6164;42.178;24.622;2023-10-09T13:02:37;100528.72;;;23.50;37.89
12203;BME280;6164;42.178;24.622;2023-10-09T13:05:10;100543.63;;;23.52;37.85
12203;BME280;6164;42.178;24.622;2023-10-09T13:07:50;100546.22;;;23.59;37.36
12203;BME280;6164;42.178;24.622;2023-10-09T13:10:16;100545.06;;;23.66;37.27
12203;BME280;6164;42.178;24.622;2023-10-09T13:12:43;100549.53;;;23.72;37.23
12203;BME280;6164;42.178;24.622;2023-10-09T13:15:09;100556.69;;;23.78;36.76
12203;BME280;6164;42.178;24.622;2023-10-09T13:17:36;100560.00;;;23.80;37.21
12203;BME280;6164;42.178;24.622;2023-10-09T13:20:02;100549.56;;;23.84;37.45
12203;BME280;6164;42.178;24.622;2023-10-09T13:22:39;100574.97;;;23.76;36.83
12203;BME280;6164;42.178;24.622;2023-10-09T13:25:06;100549.22;;;23.80;36.95